createdAt,value
2022-12-07T00:04:54.504Z,100.00
2022-12-07T00:09:55.960Z,100.00
2022-12-07T00:14:57.458Z,100.00
2022-12-07T00:19:59.357Z,100.00
2022-12-07T00:25:00.954Z,100.00
2022-12-07T00:30:03.122Z,100.00
2022-12-07T00:35:05.260Z,100.00
2022-12-07T00:40:07.758Z,100.00
2022-12-07T00:45:09.755Z,100.00
2022-12-07T00:50:11.347Z,100.00
2022-12-07T00:55:12.796Z,100.00
2022-12-07T01:00:14.664Z,100.00
2022-12-07T01:05:16.160Z,100.00
2022-12-07T01:10:17.627Z,100.00
2022-12-07T01:15:19.259Z,100.00
2022-12-07T01:20:20.677Z,100.00
2022-12-07T01:25:22.243Z,100.00
2022-12-07T01:30:23.917Z,100.00
2022-12-07T01:35:25.476Z,100.00
2022-12-07T01:40:26.996Z,100.00
2022-12-07T01:45:40.510Z,100.00
2022-12-07T01:50:44.653Z,100.00
2022-12-07T01:55:52.209Z,100.00
2022-12-07T02:00:53.746Z,100.00
2022-12-07T02:05:56.458Z,100.00
2022-12-07T02:10:57.892Z,100.00
2022-12-07T02:16:44.809Z,100.00
2022-12-07T02:22:05.816Z,100.00
2022-12-07T02:27:35.182Z,100.00
2022-12-07T02:32:42.658Z,100.00
2022-12-07T02:38:16.771Z,100.00
2022-12-07T02:43:24.491Z,100.00
2022-12-07T02:48:27.912Z,100.00
2022-12-07T02:53:34.156Z,100.00
2022-12-07T02:58:38.461Z,100.00
2022-12-07T03:03:44.489Z,100.00
2022-12-07T03:09:01.448Z,100.00
2022-12-07T03:14:14.379Z,100.00
2022-12-07T03:19:19.623Z,100.00
2022-12-07T03:24:27.322Z,100.00
2022-12-07T03:29:35.275Z,100.00
2022-12-07T03:35:13.850Z,100.00
2022-12-07T03:40:31.967Z,100.00
2022-12-07T03:45:44.219Z,100.00
2022-12-07T03:50:53.512Z,100.00
2022-12-07T03:55:55.831Z,100.00
2022-12-07T04:00:57.276Z,100.00
2022-12-07T04:05:59.768Z,100.00
2022-12-07T04:11:01.831Z,100.00
2022-12-07T04:16:03.430Z,100.00
2022-12-07T04:21:04.929Z,100.00
2022-12-07T04:26:07.478Z,100.00
2022-12-07T04:31:09.047Z,100.00
2022-12-07T04:36:10.652Z,100.00
2022-12-07T04:41:12.140Z,100.00
2022-12-07T04:46:13.625Z,100.00
2022-12-07T04:51:19.328Z,100.00
2022-12-07T04:56:20.874Z,100.00
2022-12-07T05:01:23.697Z,100.00
2022-12-07T05:06:25.502Z,100.00
2022-12-07T05:11:39.378Z,100.00
2022-12-07T05:16:41.915Z,100.00
2022-12-07T05:21:43.658Z,100.00
2022-12-07T05:26:46.116Z,100.00
2022-12-07T05:31:47.641Z,100.00
2022-12-07T05:36:49.206Z,100.00
2022-12-07T05:42:09.116Z,100.00
2022-12-07T05:47:11.348Z,100.00
2022-12-07T05:52:12.807Z,100.00
2022-12-07T05:57:14.320Z,100.00
2022-12-07T06:02:17.830Z,100.00
2022-12-07T06:07:19.292Z,100.00
2022-12-07T06:12:35.995Z,100.00
2022-12-07T06:17:37.874Z,100.00
2022-12-07T06:22:39.389Z,100.00
2022-12-07T06:27:40.917Z,100.00
2022-12-07T06:32:42.386Z,100.00
2022-12-07T06:37:43.847Z,100.00
2022-12-07T06:42:45.484Z,100.00
2022-12-07T06:47:47.424Z,100.00
2022-12-07T06:52:49.186Z,100.00
2022-12-07T06:57:50.714Z,100.00
2022-12-07T07:02:52.276Z,100.00
2022-12-07T07:13:15.351Z,100.00
2022-12-07T07:18:16.836Z,99.73
2022-12-07T07:23:18.767Z,99.16
2022-12-07T07:28:20.297Z,98.27
2022-12-07T07:33:21.815Z,97.84
2022-12-07T07:38:23.473Z,96.55
2022-12-07T07:43:24.887Z,96.07
2022-12-07T07:48:26.469Z,95.14
2022-12-07T07:53:27.945Z,94.31
2022-12-07T07:58:29.347Z,94.03
2022-12-07T08:03:30.810Z,93.99
2022-12-07T08:08:32.883Z,94.73
2022-12-07T08:13:34.382Z,94.67
2022-12-07T08:18:40.815Z,93.14
2022-12-07T08:23:42.652Z,92.93
2022-12-07T08:28:46.040Z,92.07
2022-12-07T08:33:49.010Z,91.98
2022-12-07T08:39:29.318Z,92.07
2022-12-07T08:44:12.767Z,91.66
2022-12-07T08:49:19.087Z,92.03
2022-12-07T08:54:20.789Z,92.32
2022-12-07T08:59:22.544Z,90.59
2022-12-07T09:04:24.064Z,91.26
2022-12-07T09:09:25.640Z,90.44
2022-12-07T09:14:27.165Z,91.20
2022-12-07T09:19:28.583Z,91.50
2022-12-07T09:24:30.058Z,92.11
2022-12-07T09:29:31.477Z,90.83
2022-12-07T09:34:33.285Z,89.97
2022-12-07T09:39:38.324Z,89.36
2022-12-07T09:44:41.332Z,90.38
2022-12-07T09:49:42.854Z,90.15
2022-12-07T09:54:48.360Z,90.54
2022-12-07T09:59:49.809Z,90.46
2022-12-07T10:04:51.435Z,90.44
2022-12-07T10:09:52.926Z,89.28
2022-12-07T10:15:18.411Z,88.97
2022-12-07T10:20:28.178Z,89.50
2022-12-07T10:25:35.363Z,88.79
2022-12-07T10:30:55.429Z,87.35
2022-12-07T10:35:57.783Z,88.60
2022-12-07T10:41:07.692Z,87.41
2022-12-07T10:46:38.429Z,86.67
2022-12-07T10:51:50.454Z,87.14
2022-12-07T10:57:10.637Z,86.41
2022-12-07T11:02:27.500Z,86.34
2022-12-07T11:07:38.186Z,86.59
2022-12-07T11:12:39.603Z,87.19
2022-12-07T11:17:49.842Z,86.68
2022-12-07T11:23:18.593Z,85.27
2022-12-07T11:28:38.412Z,84.91
2022-12-07T11:33:46.907Z,85.24
2022-12-07T11:38:56.058Z,86.07
2022-12-07T11:44:07.138Z,85.64
2022-12-07T11:49:36.482Z,85.97
2022-12-07T11:54:44.530Z,85.74
2022-12-07T11:59:52.571Z,85.72
2022-12-07T12:04:56.642Z,85.61
2022-12-07T12:10:07.625Z,85.72
2022-12-07T12:15:24.618Z,86.03
2022-12-07T12:20:50.634Z,86.53
2022-12-07T12:26:02.456Z,87.49
2022-12-07T12:31:11.874Z,87.68
2022-12-07T12:36:19.098Z,87.76
2022-12-07T12:41:47.897Z,87.18
2022-12-07T12:46:52.417Z,86.87
2022-12-07T12:51:59.680Z,88.01
2022-12-07T12:57:13.036Z,87.12
2022-12-07T13:02:22.004Z,87.66
2022-12-07T13:07:48.421Z,87.48
2022-12-07T13:13:14.831Z,87.49
2022-12-07T13:18:25.366Z,87.67
2022-12-07T13:23:39.009Z,87.85
2022-12-07T13:28:46.480Z,88.30
2022-12-07T13:33:49.076Z,88.61
2022-12-07T13:39:15.388Z,89.19
2022-12-07T13:44:18.199Z,89.67
2022-12-07T13:49:31.184Z,90.07
2022-12-07T13:54:32.623Z,90.64
2022-12-07T13:59:34.524Z,89.58
2022-12-07T14:04:38.059Z,90.50
2022-12-07T14:09:39.478Z,91.43
2022-12-07T14:14:49.097Z,90.68
2022-12-07T14:19:56.073Z,90.74
2022-12-07T14:25:18.245Z,90.49
2022-12-07T14:30:20.170Z,91.21
2022-12-07T14:35:21.798Z,91.20
2022-12-07T14:40:25.427Z,91.30
2022-12-07T14:45:26.844Z,91.08
2022-12-07T14:50:28.357Z,90.02
2022-12-07T14:55:32.355Z,91.05
2022-12-07T15:00:35.195Z,90.75
2022-12-07T15:05:38.139Z,91.11
2022-12-07T15:10:41.102Z,91.41
2022-12-07T15:15:42.901Z,91.02
2022-12-07T15:20:45.110Z,91.14
2022-12-07T15:25:48.304Z,91.29
2022-12-07T15:30:49.778Z,90.25
2022-12-07T15:35:51.296Z,90.87
2022-12-07T15:40:52.726Z,91.88
2022-12-07T15:45:54.207Z,91.68
2022-12-07T15:51:06.634Z,92.10
2022-12-07T15:56:08.927Z,92.15
2022-12-07T16:01:14.450Z,92.71
2022-12-07T16:06:20.292Z,92.94
2022-12-07T16:11:21.934Z,92.97
2022-12-07T16:16:23.683Z,92.09
2022-12-07T16:21:25.913Z,92.55
2022-12-07T16:26:27.579Z,92.54
2022-12-07T16:31:29.533Z,93.68
2022-12-07T16:41:53.854Z,93.64
2022-12-07T16:46:55.528Z,93.00
2022-12-07T16:52:26.056Z,93.53
2022-12-07T16:57:23.143Z,93.59
2022-12-07T17:02:26.284Z,93.42
2022-12-07T17:07:27.749Z,94.12
2022-12-07T17:12:29.222Z,93.98
2022-12-07T17:17:30.753Z,94.67
2022-12-07T17:22:32.218Z,94.50
2022-12-07T17:27:33.801Z,94.87
2022-12-07T17:32:35.275Z,95.20
2022-12-07T17:37:36.749Z,95.99
2022-12-07T17:42:39.974Z,96.24
2022-12-07T17:47:41.507Z,97.12
2022-12-07T17:53:01.480Z,97.20
2022-12-07T17:58:02.917Z,97.01
2022-12-07T18:03:09.502Z,97.65
2022-12-07T18:08:11.121Z,97.87
2022-12-07T18:13:31.314Z,98.02
2022-12-07T18:18:32.817Z,97.81
2022-12-07T18:23:34.458Z,98.64
2022-12-07T18:28:35.946Z,98.71
2022-12-07T18:33:37.515Z,98.54
2022-12-07T18:38:39.611Z,99.02
2022-12-07T18:43:42.153Z,98.76
2022-12-07T18:48:45.462Z,98.67
2022-12-07T18:53:47.221Z,99.81
2022-12-07T18:59:09.029Z,99.89
2022-12-07T19:04:10.975Z,100.00
2022-12-07T19:09:13.537Z,100.00
2022-12-07T19:14:33.106Z,100.00
2022-12-07T19:19:36.990Z,100.00
2022-12-07T19:24:38.651Z,100.00
2022-12-07T19:29:40.583Z,99.92
2022-12-07T19:34:43.895Z,99.85
2022-12-07T19:39:46.568Z,98.98
2022-12-07T19:44:48.548Z,99.45
2022-12-07T19:49:50.033Z,99.88
2022-12-07T19:54:51.501Z,100.00
2022-12-07T19:59:52.932Z,100.00
2022-12-07T20:04:54.352Z,100.00
2022-12-07T20:09:55.918Z,100.00
2022-12-07T20:14:57.582Z,100.00
2022-12-07T20:19:59.009Z,100.00
2022-12-07T20:25:00.521Z,100.00
2022-12-07T20:30:02.041Z,100.00
2022-12-07T20:35:03.666Z,100.00
2022-12-07T20:40:06.398Z,100.00
2022-12-07T20:45:09.598Z,100.00
2022-12-07T20:50:11.377Z,100.00
2022-12-07T20:55:13.194Z,100.00
2022-12-07T21:00:15.153Z,100.00
2022-12-07T21:05:18.622Z,100.00
2022-12-07T21:10:20.076Z,100.00
2022-12-07T21:15:21.535Z,100.00
2022-12-07T21:20:22.946Z,100.00
2022-12-07T21:25:24.406Z,100.00
2022-12-07T21:30:25.863Z,100.00
2022-12-07T21:35:27.320Z,100.00
2022-12-07T21:40:28.786Z,100.00
2022-12-07T21:45:32.755Z,100.00
2022-12-07T21:50:37.986Z,100.00
2022-12-07T21:55:43.985Z,100.00
2022-12-07T22:00:45.421Z,100.00
2022-12-07T22:05:47.012Z,100.00
2022-12-07T22:10:48.434Z,100.00
2022-12-07T22:15:49.954Z,100.00
2022-12-07T22:20:56.191Z,100.00
2022-12-07T22:25:59.032Z,100.00
2022-12-07T22:31:06.907Z,100.00
2022-12-07T22:36:09.501Z,100.00
2022-12-07T22:41:12.326Z,100.00
2022-12-07T22:46:13.871Z,100.00
2022-12-07T22:51:24.692Z,100.00
2022-12-07T22:56:26.915Z,100.00
2022-12-07T23:01:28.383Z,100.00
2022-12-07T23:06:32.232Z,100.00
2022-12-07T23:11:55.787Z,100.00
2022-12-07T23:16:57.611Z,100.00
2022-12-07T23:21:59.124Z,100.00
2022-12-07T23:27:00.652Z,100.00
2022-12-07T23:32:02.214Z,100.00
2022-12-07T23:37:03.672Z,100.00
2022-12-07T23:42:05.166Z,100.00
2022-12-07T23:47:06.692Z,100.00
2022-12-07T23:52:08.258Z,100.00
2022-12-07T23:57:09.912Z,100.00
